New Russia, NY (12964)

4:53 PM EDT on August 27, 2015 (GMT -0400)
Moriah, NY 12960 | | Change Station
CLOSE
Current Station
Personal Weather Station
Location: Moriah, NY
Elevation: 895 ft
Nearby Weather Stations

Elev 895 ft 44.05 °N, 73.51 °W | Updated 0 second ago

Overcast
Overcast
69.9 °F
Feels Like 69.9 °F
N
0.0
Wind Variable Wind from NNW
Gusts 3.0 mph

Today
High -- | Low -- °F
--% Chance of Precip.
Yesterday
High -- | Low -- °F
Precip. -- in
6:11 AM 7:39 PM
Waxing Gibbous, 95% visible
Pressure 30.02 in
Visibility 10.0 miles
Clouds Scattered Clouds 4600 ft
Overcast 7000 ft
Dew Point 56 °F
Humidity 62%
Rainfall 0.22 in
Snow Depth Not available.
UV 1 out of 12
Pollen 8.50 out of 12
Air Quality Not available.
Flu Activity Not available.
METAR K6B0 272035Z AUTO 33007KT 10SM SCT046 OVC070 22/10 A3002 RMK AO2 T02200095
Pressure 30.02 in
Visibility 10.0 miles
Clouds Scattered Clouds 4600 ft
Overcast 7000 ft
Dew Point 56 °F
Humidity 62%
Rainfall 0.22 in
Snow Depth Not available.
UV 1 out of 12
Pollen 8.50 out of 12
Air Quality Not available.
Flu Activity Not available.
METAR K6B0 272035Z AUTO 33007KT 10SM SCT046 OVC070 22/10 A3002 RMK AO2 T02200095

10-Day Weather Forecast

×

Almanac

Astronomy

Aug. 27, 2015 Rise Set
Actual Time
Civil Twilight
Nautical Twilight
Astronomical Twilight
Moon
Length of Visible Light
Length of Day
Tomorrow will be .
, % of the Moon is Illuminated

Today's Extremes

State Highs State Lows

Community

WunderPhotos

Upload Photos

1,850,212 photos uploaded!

WunderBlogs® & News

Nearby

Air Quality

  Air Quality AQ Index Pollutant
Not available.

Snow Depth

Station Depth Elevation

Earthquake Activity

City Distance Mag. Time & Date
Minimum magnitude displayed is 2.5.

Coastal Water Temperatures

Place Temperature

Stations

Nearby Weather Stations

Station Location Temp. Windchill Dew Point Humidity Wind Precip. Elev Updated Type